Time;durP1;ratioP1;P1;durP2;ratioP2;P2;SDS_P1;SDS_P2;PMS_P1;PMS_P2;Temp;Humidity;BMP_temperature;BMP_pressure;BME280_temperature;BME280_humidity;BME280_pressure;Samples;Min_cycle;Max_cycle;Signal;HPM_P1;HPM_P2
2021/03/13 00:01:05;;;;;;;4.32;2.45;;;;;;;;;;5134950;27;20039;-71
2021/03/13 00:03:31;;;;;;;3.47;2.17;;;;;;;;;;5134836;27;20122;-70
2021/03/13 00:05:56;;;;;;;2.85;1.77;;;;;;;;;;5116266;27;20195;-71
2021/03/13 00:08:22;;;;;;;2.40;1.63;;;;;;;;;;5134650;27;20031;-71
2021/03/13 00:10:48;;;;;;;3.95;1.98;;;;;;;;;;5116392;27;20039;-70
2021/03/13 00:13:15;;;;;;;4.00;2.13;;;;;;;;;;5134450;27;20107;-71
2021/03/13 00:15:41;;;;;;;2.83;1.80;;;;;;;;;;5133888;27;20027;-70
2021/03/13 00:18:07;;;;;;;7.15;1.73;;;;;;;;;;5134552;27;20027;-71
2021/03/13 00:20:35;;;;;;;5.03;2.20;;;;;;;;;;5134349;27;20377;-71
2021/03/13 00:23:02;;;;;;;4.28;1.73;;;;;;;;;;5133629;27;20027;-71
2021/03/13 00:25:29;;;;;;;2.90;1.60;;;;;;;;;;5134370;27;20027;-71
2021/03/13 00:27:56;;;;;;;2.75;1.70;;;;;;;;;;5134462;27;20430;-71
2021/03/13 00:30:24;;;;;;;3.10;1.63;;;;;;;;;;5115900;27;20051;-70
2021/03/13 00:32:53;;;;;;;5.28;3.10;;;;;;;;;;5134439;27;20043;-71
2021/03/13 00:35:19;;;;;;;6.18;3.38;;;;;;;;;;5134329;27;20039;-71
2021/03/13 00:37:45;;;;;;;7.45;3.88;;;;;;;;;;5134288;27;20096;-71
2021/03/13 00:40:14;;;;;;;5.93;3.10;;;;;;;;;;5133487;27;20031;-71
2021/03/13 00:42:40;;;;;;;5.80;3.30;;;;;;;;;;5134258;27;20053;-71
2021/03/13 00:45:08;;;;;;;7.18;4.28;;;;;;;;;;5115726;28;20039;-71
2021/03/13 00:47:33;;;;;;;8.23;4.25;;;;;;;;;;5115845;28;20027;-71
2021/03/13 00:49:59;;;;;;;7.95;4.80;;;;;;;;;;5133729;28;20122;-71
2021/03/13 00:52:25;;;;;;;8.25;4.10;;;;;;;;;;5114707;28;20122;-71
2021/03/13 00:54:51;;;;;;;5.60;3.63;;;;;;;;;;5115745;28;20031;-71
2021/03/13 00:57:16;;;;;;;4.28;2.70;;;;;;;;;;5133615;28;20034;-71
2021/03/13 00:59:42;;;;;;;4.50;2.60;;;;;;;;;;5134256;28;20039;-71
2021/03/13 01:02:07;;;;;;;6.50;3.08;;;;;;;;;;5115456;28;20499;-71
2021/03/13 01:04:34;;;;;;;5.82;2.42;;;;;;;;;;5133154;27;20515;-71
2021/03/13 01:06:59;;;;;;;3.08;2.10;;;;;;;;;;5131764;28;20067;-71
2021/03/13 01:09:25;;;;;;;5.35;2.78;;;;;;;;;;5133581;28;20484;-71
2021/03/13 01:11:51;;;;;;;5.57;2.72;;;;;;;;;;5115528;28;20030;-71
2021/03/13 01:14:16;;;;;;;8.30;2.88;;;;;;;;;;5115802;28;20138;-71
2021/03/13 01:16:45;;;;;;;5.15;2.50;;;;;;;;;;5115569;28;20137;-71
2021/03/13 01:19:10;;;;;;;6.38;2.90;;;;;;;;;;5133123;28;20543;-71
2021/03/13 01:21:36;;;;;;;7.43;1.95;;;;;;;;;;5115605;28;20027;-71
2021/03/13 01:24:06;;;;;;;5.32;1.80;;;;;;;;;;5115225;28;20035;-71
2021/03/13 01:26:36;;;;;;;3.42;1.98;;;;;;;;;;5133859;28;20038;-71
2021/03/13 01:29:05;;;;;;;4.47;1.83;;;;;;;;;;5115439;28;20373;-71
2021/03/13 01:31:37;;;;;;;4.55;2.10;;;;;;;;;;5115340;28;20027;-71
2021/03/13 01:34:03;;;;;;;8.18;2.28;;;;;;;;;;5136580;27;20035;-71
2021/03/13 01:36:29;;;;;;;5.70;1.50;;;;;;;;;;5118958;27;20373;-71
2021/03/13 01:38:55;;;;;;;8.32;1.52;;;;;;;;;;5118911;27;20035;-71
2021/03/13 01:41:21;;;;;;;4.10;1.33;;;;;;;;;;5137641;27;20485;-71
2021/03/13 01:43:47;;;;;;;6.05;1.77;;;;;;;;;;5117880;27;20055;-71
2021/03/13 01:46:12;;;;;;;5.93;1.50;;;;;;;;;;5116840;28;20035;-71
2021/03/13 01:48:50;;;;;;;5.68;2.22;;;;;;;;;;5098401;28;20028;-71
2021/03/13 01:51:19;;;;;;;5.35;1.55;;;;;;;;;;5116821;28;20035;-70
2021/03/13 01:53:51;;;;;;;3.55;1.05;;;;;;;;;;5116833;28;20034;-71
2021/03/13 01:56:21;;;;;;;1.75;0.88;;;;;;;;;;5098361;28;20027;-71
2021/03/13 01:58:50;;;;;;;3.05;1.10;;;;;;;;;;5098338;28;20046;-71
2021/03/13 02:01:18;;;;;;;4.20;1.25;;;;;;;;;;5125196;27;20046;-70
2021/03/13 02:03:43;;;;;;;3.80;1.23;;;;;;;;;;5118510;27;20516;-71
2021/03/13 02:06:12;;;;;;;7.25;1.77;;;;;;;;;;5118678;27;20030;-70
2021/03/13 02:09:03;;;;;;;4.53;1.98;;;;;;;;;;5137248;27;20042;-70
2021/03/13 02:11:43;;;;;;;3.50;1.40;;;;;;;;;;5137042;27;20034;-70
2021/03/13 02:14:34;;;;;;;2.33;1.20;;;;;;;;;;5118473;27;20387;-71
2021/03/13 02:17:42;;;;;;;3.95;1.38;;;;;;;;;;5136855;27;20369;-71
2021/03/13 02:20:41;;;;;;;4.88;1.65;;;;;;;;;;5136713;27;20042;-71
2021/03/13 02:23:13;;;;;;;3.75;2.28;;;;;;;;;;5117949;27;20041;-70
2021/03/13 02:26:45;;;;;;;5.13;2.13;;;;;;;;;;5135814;27;20078;-71
2021/03/13 02:29:41;;;;;;;4.03;1.60;;;;;;;;;;5129109;27;20038;-70
2021/03/13 02:32:34;;;;;;;2.67;1.08;;;;;;;;;;5118112;27;20045;-71
2021/03/13 02:35:21;;;;;;;2.35;1.23;;;;;;;;;;5117980;27;20110;-70
2021/03/13 02:37:59;;;;;;;3.38;1.42;;;;;;;;;;5117987;27;20054;-70
2021/03/13 02:40:30;;;;;;;3.97;1.48;;;;;;;;;;5118064;27;20035;-71
2021/03/13 02:43:01;;;;;;;8.77;1.48;;;;;;;;;;5117691;27;20117;-70
2021/03/13 02:45:30;;;;;;;4.07;1.35;;;;;;;;;;5135683;27;20043;-70
2021/03/13 02:47:58;;;;;;;6.13;1.55;;;;;;;;;;5135985;27;20051;-71
2021/03/13 02:50:26;;;;;;;4.63;1.45;;;;;;;;;;5100140;27;20030;-70
2021/03/13 02:53:00;;;;;;;3.83;1.42;;;;;;;;;;5136023;27;20027;-70
2021/03/13 02:55:27;;;;;;;6.40;1.45;;;;;;;;;;5117385;27;20066;-70
2021/03/13 02:57:56;;;;;;;4.40;1.58;;;;;;;;;;5117165;27;20035;-70
2021/03/13 03:00:23;;;;;;;6.07;1.58;;;;;;;;;;5117501;27;20035;-70
2021/03/13 03:02:55;;;;;;;3.47;1.33;;;;;;;;;;5136052;27;20076;-70
2021/03/13 03:05:24;;;;;;;4.97;1.63;;;;;;;;;;5116585;27;20122;-70
2021/03/13 03:07:54;;;;;;;4.85;1.40;;;;;;;;;;5117596;27;20118;-70
2021/03/13 03:10:26;;;;;;;3.55;1.38;;;;;;;;;;5117512;27;20537;-70
2021/03/13 03:12:53;;;;;;;4.75;1.60;;;;;;;;;;5117438;27;20476;-70
2021/03/13 03:15:23;;;;;;;5.65;1.70;;;;;;;;;;5116548;27;20046;-70
2021/03/13 03:17:49;;;;;;;3.17;1.48;;;;;;;;;;5117445;27;20114;-70
2021/03/13 03:20:15;;;;;;;4.53;1.52;;;;;;;;;;5135731;27;20126;-70
2021/03/13 03:22:41;;;;;;;1.98;1.35;;;;;;;;;;5117000;27;20027;-70
2021/03/13 03:25:15;;;;;;;6.85;1.70;;;;;;;;;;5135294;27;20456;-70
2021/03/13 03:27:50;;;;;;;4.97;1.58;;;;;;;;;;5115959;27;20519;-70
2021/03/13 03:30:25;;;;;;;3.53;1.55;;;;;;;;;;5117182;27;20053;-70
2021/03/13 03:32:51;;;;;;;4.45;1.70;;;;;;;;;;5117042;27;20027;-70
2021/03/13 03:35:18;;;;;;;4.03;1.70;;;;;;;;;;5135255;27;20075;-70
2021/03/13 03:37:44;;;;;;;2.63;1.42;;;;;;;;;;5116065;27;20445;-70
2021/03/13 03:40:11;;;;;;;4.13;2.30;;;;;;;;;;5135447;27;20491;-70
2021/03/13 03:42:41;;;;;;;2.72;1.73;;;;;;;;;;5135265;27;20027;-70
2021/03/13 03:45:09;;;;;;;4.07;1.70;;;;;;;;;;5116538;27;20081;-70
2021/03/13 03:47:35;;;;;;;3.97;2.00;;;;;;;;;;5115976;27;20151;-70
2021/03/13 03:50:06;;;;;;;6.68;2.38;;;;;;;;;;5115636;27;20023;-70
2021/03/13 03:52:48;;;;;;;5.03;1.98;;;;;;;;;;5116670;27;20031;-70
2021/03/13 03:55:16;;;;;;;7.10;2.28;;;;;;;;;;5115976;27;20460;-70
2021/03/13 03:57:43;;;;;;;2.80;1.65;;;;;;;;;;5134707;27;20054;-70
2021/03/13 04:00:09;;;;;;;4.28;2.22;;;;;;;;;;5134633;27;20035;-70
2021/03/13 04:02:38;;;;;;;6.43;2.70;;;;;;;;;;5134155;27;20026;-70
2021/03/13 04:05:05;;;;;;;4.07;2.58;;;;;;;;;;5134576;27;20039;-70
2021/03/13 04:07:34;;;;;;;7.45;2.63;;;;;;;;;;5115370;27;20027;-70
2021/03/13 04:10:03;;;;;;;4.38;2.50;;;;;;;;;;5134853;27;20366;-70
2021/03/13 04:12:28;;;;;;;3.20;2.40;;;;;;;;;;5134549;27;20042;-70
2021/03/13 04:14:55;;;;;;;4.13;2.40;;;;;;;;;;5133597;27;20035;-70
2021/03/13 04:17:20;;;;;;;6.47;2.75;;;;;;;;;;5134611;27;20087;-70
2021/03/13 04:19:46;;;;;;;7.90;3.47;;;;;;;;;;5134530;27;20365;-71
2021/03/13 04:22:13;;;;;;;5.57;3.05;;;;;;;;;;5134754;27;20035;-71
2021/03/13 04:24:39;;;;;;;8.98;3.55;;;;;;;;;;5133634;27;20411;-71
2021/03/13 04:27:05;;;;;;;4.78;3.53;;;;;;;;;;5134350;27;20037;-71
2021/03/13 04:29:30;;;;;;;5.13;3.47;;;;;;;;;;5134180;27;20130;-71
2021/03/13 04:31:59;;;;;;;5.82;3.63;;;;;;;;;;5134190;27;20106;-71
2021/03/13 04:34:25;;;;;;;9.60;4.05;;;;;;;;;;5115948;27;20037;-71
2021/03/13 04:36:50;;;;;;;6.53;4.15;;;;;;;;;;5134320;27;20035;-71
2021/03/13 04:39:16;;;;;;;6.22;3.78;;;;;;;;;;5115919;28;20391;-71
2021/03/13 04:41:42;;;;;;;8.15;3.65;;;;;;;;;;5134338;27;20035;-71
2021/03/13 04:44:08;;;;;;;7.32;3.88;;;;;;;;;;5133663;27;20080;-71
2021/03/13 04:46:35;;;;;;;7.55;3.95;;;;;;;;;;5134180;27;20051;-71
2021/03/13 04:49:05;;;;;;;8.05;4.00;;;;;;;;;;5134162;28;20023;-71
2021/03/13 04:51:30;;;;;;;4.85;3.60;;;;;;;;;;5133463;28;20046;-71
2021/03/13 04:53:56;;;;;;;9.35;4.28;;;;;;;;;;5134002;28;20035;-71
2021/03/13 04:56:21;;;;;;;5.88;3.90;;;;;;;;;;5133835;27;20401;-71
2021/03/13 04:58:47;;;;;;;5.93;3.67;;;;;;;;;;5133464;28;20034;-71
2021/03/13 05:01:12;;;;;;;6.50;3.53;;;;;;;;;;5134143;28;20031;-71
2021/03/13 05:03:38;;;;;;;5.53;4.03;;;;;;;;;;5134118;28;20036;-71
2021/03/13 05:06:04;;;;;;;6.60;3.88;;;;;;;;;;5134032;27;20038;-71
2021/03/13 05:08:30;;;;;;;5.32;4.00;;;;;;;;;;5135868;27;20027;-71
2021/03/13 05:10:55;;;;;;;5.78;3.60;;;;;;;;;;5119619;27;20389;-71
2021/03/13 05:13:21;;;;;;;8.40;4.25;;;;;;;;;;5138128;27;20453;-71
2021/03/13 05:15:46;;;;;;;3.95;3.47;;;;;;;;;;5119325;27;20031;-71
2021/03/13 05:18:12;;;;;;;6.00;3.60;;;;;;;;;;5137770;27;20413;-71
2021/03/13 05:20:37;;;;;;;6.35;3.60;;;;;;;;;;5138084;27;20051;-71
2021/03/13 05:23:02;;;;;;;4.40;3.38;;;;;;;;;;5119479;27;20039;-71
2021/03/13 05:25:28;;;;;;;4.15;3.00;;;;;;;;;;5137939;27;20031;-70
2021/03/13 05:27:53;;;;;;;5.20;3.53;;;;;;;;;;5136908;27;20031;-70
2021/03/13 05:30:19;;;;;;;5.88;3.20;;;;;;;;;;5137823;27;20114;-71
2021/03/13 05:32:44;;;;;;;4.85;3.03;;;;;;;;;;5137289;27;20172;-71
2021/03/13 05:35:11;;;;;;;5.10;3.20;;;;;;;;;;5137563;27;20497;-71
2021/03/13 05:37:38;;;;;;;6.75;3.40;;;;;;;;;;5137517;27;20487;-71
2021/03/13 05:40:09;;;;;;;5.38;2.22;;;;;;;;;;5117966;27;20384;-71
2021/03/13 05:42:38;;;;;;;3.40;2.65;;;;;;;;;;5137271;27;20571;-71
2021/03/13 05:45:06;;;;;;;3.00;2.30;;;;;;;;;;5137059;27;20047;-71
2021/03/13 05:47:38;;;;;;;5.25;2.80;;;;;;;;;;5137509;27;20084;-71
2021/03/13 05:50:04;;;;;;;2.97;2.40;;;;;;;;;;5137294;27;20054;-71
2021/03/13 05:52:36;;;;;;;2.95;2.13;;;;;;;;;;5137100;27;20043;-71
2021/03/13 05:55:03;;;;;;;4.50;2.25;;;;;;;;;;5137347;27;20028;-71
2021/03/13 05:57:29;;;;;;;3.08;2.33;;;;;;;;;;5136546;27;20445;-71
2021/03/13 05:59:55;;;;;;;2.88;2.30;;;;;;;;;;5137065;27;20045;-71
2021/03/13 06:02:21;;;;;;;4.13;2.38;;;;;;;;;;5137006;27;20034;-71
2021/03/13 06:04:52;;;;;;;2.63;2.03;;;;;;;;;;5136866;27;20031;-71
2021/03/13 06:07:21;;;;;;;2.88;1.83;;;;;;;;;;5136525;27;20118;-71
2021/03/13 06:09:53;;;;;;;3.17;2.03;;;;;;;;;;5137148;27;20047;-71
2021/03/13 06:12:19;;;;;;;5.55;2.40;;;;;;;;;;5136305;27;20483;-71
2021/03/13 06:14:49;;;;;;;2.42;1.80;;;;;;;;;;5136771;27;20460;-71
2021/03/13 06:17:15;;;;;;;2.03;1.40;;;;;;;;;;5136352;27;20406;-71
2021/03/13 06:19:48;;;;;;;1.85;1.35;;;;;;;;;;5136122;27;20388;-71
2021/03/13 06:22:32;;;;;;;1.75;1.33;;;;;;;;;;5137086;27;20070;-71
2021/03/13 06:25:16;;;;;;;2.00;1.30;;;;;;;;;;5135877;27;20039;-71
2021/03/13 06:27:43;;;;;;;3.75;1.52;;;;;;;;;;5118311;27;20047;-71
2021/03/13 06:30:10;;;;;;;2.38;1.27;;;;;;;;;;5118275;27;20059;-71
2021/03/13 06:32:36;;;;;;;1.95;1.33;;;;;;;;;;5136776;27;20031;-71
2021/03/13 06:35:19;;;;;;;1.45;1.35;;;;;;;;;;5136648;27;20031;-71
2021/03/13 06:37:45;;;;;;;1.52;1.10;;;;;;;;;;5135910;27;20035;-71
2021/03/13 06:40:25;;;;;;;2.45;1.20;;;;;;;;;;5136273;27;20487;-71
2021/03/13 06:42:50;;;;;;;1.20;1.10;;;;;;;;;;5136453;27;20033;-71
2021/03/13 06:45:18;;;;;;;1.30;1.10;;;;;;;;;;5136063;27;20443;-71
2021/03/13 06:47:44;;;;;;;1.83;1.38;;;;;;;;;;5136060;27;20525;-71
2021/03/13 06:50:10;;;;;;;1.48;1.20;;;;;;;;;;5136126;27;20027;-71
2021/03/13 06:52:36;;;;;;;1.33;1.23;;;;;;;;;;5135394;27;20468;-71
2021/03/13 06:55:02;;;;;;;1.33;1.23;;;;;;;;;;5136055;27;20076;-70
2021/03/13 06:57:28;;;;;;;1.88;1.13;;;;;;;;;;5136169;27;20038;-70
2021/03/13 06:59:57;;;;;;;2.22;1.77;;;;;;;;;;5100611;27;20043;-71
2021/03/13 07:02:22;;;;;;;4.28;1.40;;;;;;;;;;5135668;27;20035;-71
2021/03/13 07:04:47;;;;;;;3.00;1.40;;;;;;;;;;5135786;27;20384;-71
2021/03/13 07:07:26;;;;;;;1.63;1.40;;;;;;;;;;5135759;27;20110;-71
2021/03/13 07:09:54;;;;;;;2.03;1.30;;;;;;;;;;5135532;27;20050;-71
2021/03/13 07:12:36;;;;;;;1.80;1.40;;;;;;;;;;5135643;27;20031;-71
2021/03/13 07:15:16;;;;;;;9.13;5.88;;;;;;;;;;5135753;27;20365;-71
2021/03/13 07:17:49;;;;;;;1.98;1.77;;;;;;;;;;5135624;27;20385;-70
2021/03/13 07:20:15;;;;;;;1.63;1.50;;;;;;;;;;5114983;28;20027;-71
2021/03/13 07:22:42;;;;;;;1.55;1.30;;;;;;;;;;5096898;28;20039;-71
2021/03/13 07:25:09;;;;;;;1.20;1.10;;;;;;;;;;5114928;28;20405;-72
2021/03/13 07:27:40;;;;;;;1.45;1.35;;;;;;;;;;5114874;28;20027;-72
2021/03/13 07:30:16;;;;;;;1.60;1.50;;;;;;;;;;5114118;28;20067;-72
2021/03/13 07:32:43;;;;;;;;;;;;;;;;;;5114911;28;20096;-72
2021/03/13 07:35:11;;;;;;;3.75;1.02;;;;;;;;;;5114566;28;19957;-72
2021/03/13 07:37:40;;;;;;;2.47;1.40;;;;;;;;;;5114530;28;20028;-72
2021/03/13 07:40:10;;;;;;;0.80;0.80;;;;;;;;;;5114809;28;20035;-72
2021/03/13 07:42:36;;;;;;;1.95;1.58;;;;;;;;;;5096467;28;20139;-72
2021/03/13 07:45:02;;;;;;;1.27;0.73;;;;;;;;;;5114269;28;20042;-72
2021/03/13 07:47:28;;;;;;;1.23;1.10;;;;;;;;;;5114629;28;20036;-72
2021/03/13 07:49:54;;;;;;;1.00;0.90;;;;;;;;;;5131754;27;20035;-73
2021/03/13 07:52:20;;;;;;;0.98;0.88;;;;;;;;;;5135049;27;20425;-73
2021/03/13 07:54:48;;;;;;;1.80;0.85;;;;;;;;;;5134965;27;20035;-73
2021/03/13 07:57:15;;;;;;;1.27;0.75;;;;;;;;;;5134734;27;20046;-73
2021/03/13 07:59:42;;;;;;;1.50;0.80;;;;;;;;;;5134910;27;20033;-73
2021/03/13 08:02:07;;;;;;;1.20;0.73;;;;;;;;;;5134704;27;20037;-73
2021/03/13 08:04:39;;;;;;;2.65;0.60;;;;;;;;;;5134174;27;20027;-73
2021/03/13 08:07:05;;;;;;;2.42;0.85;;;;;;;;;;5134375;27;20039;-73
2021/03/13 08:09:31;;;;;;;0.77;0.70;;;;;;;;;;5134641;27;20031;-73
2021/03/13 08:11:59;;;;;;;0.88;0.60;;;;;;;;;;5116464;27;20035;-72
2021/03/13 08:14:31;;;;;;;0.68;0.68;;;;;;;;;;5134335;27;20039;-72
2021/03/13 08:17:10;;;;;;;1.80;1.10;;;;;;;;;;5134660;27;20053;-73
2021/03/13 08:19:42;;;;;;;2.03;0.90;;;;;;;;;;5133820;27;20035;-73
2021/03/13 08:22:22;;;;;;;1.50;1.00;;;;;;;;;;5134466;27;20035;-73
2021/03/13 08:24:53;;;;;;;2.95;1.15;;;;;;;;;;5134277;27;20414;-73
2021/03/13 08:27:40;;;;;;;0.82;0.80;;;;;;;;;;5134570;27;20051;-72
2021/03/13 08:30:18;;;;;;;1.45;0.75;;;;;;;;;;5116195;28;20124;-72
2021/03/13 08:33:00;;;;;;;2.03;0.93;;;;;;;;;;5134461;27;20035;-73
2021/03/13 08:35:48;;;;;;;2.67;0.70;;;;;;;;;;5134441;27;20523;-73
2021/03/13 08:38:16;;;;;;;1.83;0.73;;;;;;;;;;5134295;27;20034;-73
2021/03/13 08:40:48;;;;;;;2.00;1.02;;;;;;;;;;5134398;27;20038;-73
2021/03/13 08:43:35;;;;;;;2.45;1.05;;;;;;;;;;5133900;27;20392;-73
2021/03/13 08:46:00;;;;;;;1.98;0.90;;;;;;;;;;5133196;27;20103;-73
2021/03/13 08:48:58;;;;;;;5.10;0.77;;;;;;;;;;5134063;28;20035;-73
2021/03/13 08:51:24;;;;;;;1.17;1.00;;;;;;;;;;5134122;28;20168;-72
2021/03/13 08:53:49;;;;;;;2.45;0.93;;;;;;;;;;5133901;28;20362;-71
2021/03/13 08:56:40;;;;;;;1.90;1.30;;;;;;;;;;5134086;27;20035;-74
2021/03/13 08:59:17;;;;;;;5.45;1.30;;;;;;;;;;5133982;28;20118;-73
2021/03/13 09:01:45;;;;;;;3.55;1.20;;;;;;;;;;5134059;28;20470;-72
2021/03/13 09:04:11;;;;;;;1.95;1.13;;;;;;;;;;5133803;28;20074;-72
2021/03/13 09:06:40;;;;;;;2.92;1.90;;;;;;;;;;5134006;27;20051;-72
2021/03/13 09:09:15;;;;;;;3.95;2.17;;;;;;;;;;5134198;28;20039;-72
2021/03/13 09:11:41;;;;;;;2.47;0.95;;;;;;;;;;5134341;28;20342;-71
2021/03/13 09:14:08;;;;;;;1.30;0.47;;;;;;;;;;5133994;28;20035;-71
2021/03/13 09:16:38;;;;;;;3.80;0.70;;;;;;;;;;5133934;27;20027;-71
2021/03/13 09:19:05;;;;;;;2.92;0.95;;;;;;;;;;5133830;28;20035;-71
2021/03/13 09:21:48;;;;;;;2.13;1.10;;;;;;;;;;5133588;28;20062;-73
2021/03/13 09:24:21;;;;;;;3.15;0.85;;;;;;;;;;5113259;28;20044;-73
2021/03/13 09:26:48;;;;;;;0.90;0.65;;;;;;;;;;5112972;28;20099;-74
2021/03/13 09:29:14;;;;;;;2.67;0.75;;;;;;;;;;5095051;28;20036;-73
2021/03/13 09:31:39;;;;;;;1.13;0.52;;;;;;;;;;5113219;28;20039;-73
2021/03/13 09:34:20;;;;;;;2.10;0.80;;;;;;;;;;5113292;28;20024;-73
2021/03/13 09:36:46;;;;;;;1.63;0.50;;;;;;;;;;5113210;28;20036;-73
2021/03/13 09:39:13;;;;;;;2.08;0.65;;;;;;;;;;5113336;28;20050;-72
2021/03/13 09:41:39;;;;;;;2.13;0.82;;;;;;;;;;5095030;28;20500;-73
2021/03/13 09:44:05;;;;;;;1.20;0.73;;;;;;;;;;5113112;28;20028;-72
2021/03/13 09:46:31;;;;;;;2.80;0.98;;;;;;;;;;5112970;28;20101;-72
2021/03/13 09:48:58;;;;;;;0.60;0.60;;;;;;;;;;5113227;28;20427;-71
2021/03/13 09:51:25;;;;;;;4.90;0.70;;;;;;;;;;5113299;28;20055;-72
2021/03/13 09:53:51;;;;;;;1.25;0.77;;;;;;;;;;5132164;27;20027;-72
2021/03/13 09:56:28;;;;;;;1.55;0.90;;;;;;;;;;5137424;27;20407;-72
2021/03/13 09:58:57;;;;;;;0.93;0.60;;;;;;;;;;5118883;27;20035;-72
2021/03/13 10:01:23;;;;;;;4.50;0.73;;;;;;;;;;5136824;27;20043;-74
2021/03/13 10:03:49;;;;;;;2.72;1.42;;;;;;;;;;5137145;27;20042;-74
2021/03/13 10:06:17;;;;;;;5.07;2.58;;;;;;;;;;5136224;27;20035;-74
2021/03/13 10:08:42;;;;;;;2.95;1.30;;;;;;;;;;5137124;27;20185;-74
2021/03/13 10:11:08;;;;;;;4.15;1.90;;;;;;;;;;5118589;27;20149;-73
2021/03/13 10:13:33;;;;;;;3.45;1.50;;;;;;;;;;5137030;27;20038;-73
2021/03/13 10:16:01;;;;;;;3.03;1.15;;;;;;;;;;5136908;27;20084;-73
2021/03/13 10:18:30;;;;;;;3.78;1.50;;;;;;;;;;5117443;27;20042;-73
2021/03/13 10:20:58;;;;;;;1.02;0.73;;;;;;;;;;5136665;27;20038;-73
2021/03/13 10:23:30;;;;;;;2.75;1.45;;;;;;;;;;5118369;27;20440;-73
2021/03/13 10:26:13;;;;;;;4.18;1.20;;;;;;;;;;5136976;27;20066;-73
2021/03/13 10:28:44;;;;;;;4.72;2.25;;;;;;;;;;5136900;27;20088;-73
2021/03/13 10:31:19;;;;;;;2.33;1.02;;;;;;;;;;5135203;27;20544;-72
2021/03/13 10:33:46;;;;;;;8.45;1.92;;;;;;;;;;5135815;27;20035;-72
2021/03/13 10:36:13;;;;;;;5.50;1.20;;;;;;;;;;5136289;27;20124;-72
2021/03/13 10:38:42;;;;;;;3.28;1.20;;;;;;;;;;5136534;27;20496;-73
2021/03/13 10:41:16;;;;;;;11.90;1.77;;;;;;;;;;5118074;27;20045;-72
2021/03/13 10:43:45;;;;;;;6.03;1.73;;;;;;;;;;5136550;27;20539;-72
2021/03/13 10:46:21;;;;;;;4.63;1.17;;;;;;;;;;5097334;28;20043;-73
2021/03/13 10:48:47;;;;;;;6.85;2.25;;;;;;;;;;5115246;27;20439;-73
2021/03/13 10:51:41;;;;;;;8.80;1.52;;;;;;;;;;5115814;28;20040;-72
2021/03/13 10:54:23;;;;;;;6.22;1.65;;;;;;;;;;5114161;28;20039;-72
2021/03/13 10:56:48;;;;;;;9.63;1.80;;;;;;;;;;5114978;28;20038;-72
2021/03/13 10:59:14;;;;;;;6.30;2.05;;;;;;;;;;5115606;28;20057;-73
2021/03/13 11:01:44;;;;;;;4.38;1.73;;;;;;;;;;5114079;28;20032;-73
2021/03/13 11:04:10;;;;;;;5.18;1.50;;;;;;;;;;5114113;28;20031;-73
2021/03/13 11:06:36;;;;;;;3.60;1.10;;;;;;;;;;5113987;28;20178;-73
2021/03/13 11:09:08;;;;;;;3.10;1.00;;;;;;;;;;5115515;28;20051;-73
2021/03/13 11:11:34;;;;;;;4.75;1.17;;;;;;;;;;5115401;28;20036;-72
2021/03/13 11:14:00;;;;;;;3.75;1.02;;;;;;;;;;5114253;28;20047;-72
2021/03/13 11:16:25;;;;;;;5.30;1.27;;;;;;;;;;5115149;28;20027;-73
2021/03/13 11:18:55;;;;;;;3.60;1.20;;;;;;;;;;5115224;28;20050;-72
2021/03/13 11:21:22;;;;;;;4.20;1.27;;;;;;;;;;5113643;28;20469;-72
2021/03/13 11:23:49;;;;;;;2.25;1.00;;;;;;;;;;5115146;28;20035;-72
2021/03/13 11:26:14;;;;;;;5.55;0.80;;;;;;;;;;5114908;28;20403;-72
2021/03/13 11:28:40;;;;;;;4.40;1.08;;;;;;;;;;5114396;28;20084;-72
2021/03/13 11:31:06;;;;;;;2.25;0.85;;;;;;;;;;5114979;28;20084;-73
2021/03/13 11:33:31;;;;;;;2.20;1.10;;;;;;;;;;5114995;28;20086;-73
2021/03/13 11:35:57;;;;;;;4.90;0.90;;;;;;;;;;5114867;28;20070;-72
2021/03/13 11:38:22;;;;;;;2.33;0.70;;;;;;;;;;5115030;28;20047;-73
2021/03/13 11:40:48;;;;;;;3.50;0.85;;;;;;;;;;5114846;28;20039;-73
2021/03/13 11:43:13;;;;;;;1.27;0.60;;;;;;;;;;5114814;28;20027;-73
2021/03/13 11:45:39;;;;;;;2.65;0.98;;;;;;;;;;5125662;27;20519;-73
2021/03/13 11:48:05;;;;;;;2.85;1.20;;;;;;;;;;5135161;27;20476;-73
2021/03/13 11:50:31;;;;;;;7.20;1.10;;;;;;;;;;5100156;27;20035;-73
2021/03/13 11:52:57;;;;;;;4.07;1.30;;;;;;;;;;5135214;27;20095;-73
2021/03/13 11:55:25;;;;;;;3.85;1.80;;;;;;;;;;5134210;27;20038;-72
2021/03/13 11:57:50;;;;;;;2.33;0.93;;;;;;;;;;5135046;27;20042;-72
2021/03/13 12:00:17;;;;;;;3.25;1.48;;;;;;;;;;5116631;27;20035;-72
2021/03/13 12:02:43;;;;;;;3.25;0.80;;;;;;;;;;5115772;27;20382;-73
2021/03/13 12:05:09;;;;;;;2.92;0.80;;;;;;;;;;5134103;27;20457;-73
2021/03/13 12:07:36;;;;;;;3.00;1.38;;;;;;;;;;5132549;27;20042;-73
2021/03/13 12:10:07;;;;;;;1.60;1.05;;;;;;;;;;5134618;27;20038;-73
2021/03/13 12:12:32;;;;;;;2.88;0.85;;;;;;;;;;5133399;27;20456;-73
2021/03/13 12:14:58;;;;;;;3.90;1.13;;;;;;;;;;5134148;27;20062;-73
2021/03/13 12:17:23;;;;;;;3.25;1.27;;;;;;;;;;5134113;27;20417;-73
2021/03/13 12:19:49;;;;;;;1.58;0.95;;;;;;;;;;5134722;27;20064;-73
2021/03/13 12:22:15;;;;;;;5.60;1.13;;;;;;;;;;5134769;27;20031;-73
2021/03/13 12:24:40;;;;;;;4.65;1.17;;;;;;;;;;5115369;27;20042;-73
2021/03/13 12:27:06;;;;;;;5.28;1.30;;;;;;;;;;5134619;27;20035;-73
2021/03/13 12:29:32;;;;;;;3.97;1.00;;;;;;;;;;5134417;27;20073;-73
2021/03/13 12:31:57;;;;;;;5.55;1.23;;;;;;;;;;5134564;27;20461;-73
2021/03/13 12:34:23;;;;;;;5.82;1.40;;;;;;;;;;5134507;27;20445;-73
2021/03/13 12:36:48;;;;;;;2.80;1.00;;;;;;;;;;5134553;27;20050;-73
2021/03/13 12:39:14;;;;;;;6.85;1.80;;;;;;;;;;5116220;27;20434;-73
2021/03/13 12:41:39;;;;;;;4.68;1.23;;;;;;;;;;5115990;27;20072;-73
2021/03/13 12:44:05;;;;;;;4.47;1.23;;;;;;;;;;5134293;27;20035;-74
2021/03/13 12:46:31;;;;;;;8.23;1.90;;;;;;;;;;5134137;27;20043;-74
2021/03/13 12:48:57;;;;;;;4.80;1.30;;;;;;;;;;5114978;28;20039;-74
2021/03/13 12:51:22;;;;;;;4.80;1.50;;;;;;;;;;5134341;28;20039;-74
2021/03/13 12:53:48;;;;;;;5.68;1.88;;;;;;;;;;5134223;28;20037;-74
2021/03/13 12:56:14;;;;;;;8.35;3.90;;;;;;;;;;5134169;27;20054;-74
2021/03/13 12:58:39;;;;;;;8.40;2.17;;;;;;;;;;5134091;28;20093;-74
2021/03/13 13:01:06;;;;;;;9.30;3.33;;;;;;;;;;5132926;28;20031;-74
2021/03/13 13:03:32;;;;;;;3.75;1.55;;;;;;;;;;5133219;28;20026;-73
2021/03/13 13:05:57;;;;;;;5.03;1.95;;;;;;;;;;5135030;27;20034;-75
2021/03/13 13:08:23;;;;;;;4.07;1.52;;;;;;;;;;5133735;28;20039;-75
2021/03/13 13:10:48;;;;;;;18.75;5.65;;;;;;;;;;5133920;28;20080;-73
2021/03/13 13:13:15;;;;;;;5.18;1.80;;;;;;;;;;5125445;28;20091;-74
2021/03/13 13:15:40;;;;;;;5.65;1.45;;;;;;;;;;5124658;28;20365;-74
2021/03/13 13:18:06;;;;;;;8.15;1.30;;;;;;;;;;5121924;28;20059;-74
2021/03/13 13:20:32;;;;;;;8.07;1.38;;;;;;;;;;5129529;28;20192;-73
2021/03/13 13:22:57;;;;;;;5.60;1.70;;;;;;;;;;5134005;28;20396;-72
2021/03/13 13:25:23;;;;;;;8.10;1.73;;;;;;;;;;5121882;28;20038;-72
2021/03/13 13:27:49;;;;;;;6.28;1.67;;;;;;;;;;5130231;27;20062;-75
2021/03/13 13:30:16;;;;;;;5.35;1.17;;;;;;;;;;5136937;27;20031;-72
2021/03/13 13:32:43;;;;;;;6.63;2.35;;;;;;;;;;5137895;27;20039;-73
2021/03/13 13:35:09;;;;;;;6.07;1.48;;;;;;;;;;5127804;27;20023;-72
2021/03/13 13:37:35;;;;;;;4.35;1.23;;;;;;;;;;5131754;27;20075;-72
2021/03/13 13:40:02;;;;;;;6.53;1.48;;;;;;;;;;5126146;27;20047;-72
2021/03/13 13:42:28;;;;;;;5.00;1.10;;;;;;;;;;5110239;27;20488;-72
2021/03/13 13:44:53;;;;;;;4.78;1.40;;;;;;;;;;5128199;27;20044;-72
2021/03/13 13:47:18;;;;;;;4.78;1.50;;;;;;;;;;5126192;27;20039;-72
2021/03/13 13:49:44;;;;;;;3.40;1.38;;;;;;;;;;5107115;27;20032;-72
2021/03/13 13:52:09;;;;;;;10.23;1.50;;;;;;;;;;5128537;27;20035;-72
2021/03/13 13:54:35;;;;;;;4.10;1.55;;;;;;;;;;5126479;27;20034;-72
2021/03/13 13:57:02;;;;;;;2.72;1.10;;;;;;;;;;5127483;27;20499;-72
2021/03/13 13:59:28;;;;;;;6.88;1.90;;;;;;;;;;5125762;27;20430;-73
2021/03/13 14:01:53;;;;;;;7.63;1.73;;;;;;;;;;5126320;27;20106;-73
2021/03/13 14:04:19;;;;;;;7.90;1.65;;;;;;;;;;5127424;27;20076;-72
2021/03/13 14:06:44;;;;;;;8.15;1.95;;;;;;;;;;5125345;27;20063;-73
2021/03/13 14:09:13;;;;;;;2.97;1.33;;;;;;;;;;5126915;27;20083;-72
2021/03/13 14:11:44;;;;;;;6.40;1.77;;;;;;;;;;5126959;27;20028;-72
2021/03/13 14:14:10;;;;;;;10.45;1.90;;;;;;;;;;5125992;27;20372;-73
2021/03/13 14:16:35;;;;;;;8.93;1.63;;;;;;;;;;5126305;27;20149;-75
2021/03/13 14:19:01;;;;;;;5.85;1.92;;;;;;;;;;5138433;27;20503;-76
2021/03/13 14:21:26;;;;;;;4.53;1.40;;;;;;;;;;5106311;28;20400;-80
2021/03/13 14:23:51;;;;;;;5.45;1.50;;;;;;;;;;5120018;28;20043;-78
2021/03/13 14:26:17;;;;;;;5.45;1.60;;;;;;;;;;5123345;28;20042;-81
2021/03/13 14:28:42;;;;;;;11.85;2.08;;;;;;;;;;5121038;28;20039;-80
2021/03/13 14:31:08;;;;;;;7.88;1.30;;;;;;;;;;5124290;28;20019;-80
2021/03/13 14:33:33;;;;;;;7.20;1.77;;;;;;;;;;5127934;28;20046;-83
2021/03/13 14:36:00;;;;;;;4.38;1.30;;;;;;;;;;5125522;28;20444;-83
2021/03/13 14:38:27;;;;;;;5.53;1.80;;;;;;;;;;5105140;28;20027;-84
2021/03/13 14:40:53;;;;;;;2.78;1.40;;;;;;;;;;5122152;28;20046;-81
2021/03/13 14:43:19;;;;;;;7.47;1.75;;;;;;;;;;5104187;28;20047;-76
2021/03/13 14:45:45;;;;;;;4.50;1.48;;;;;;;;;;5103897;28;20058;-86
2021/03/13 14:48:11;;;;;;;8.13;1.77;;;;;;;;;;5101376;28;20028;-80
2021/03/13 14:50:37;;;;;;;13.57;3.47;;;;;;;;;;5140425;27;20031;-83
2021/03/13 14:53:02;;;;;;;7.68;1.50;;;;;;;;;;5144081;27;20088;-81